Johnson Village, Colorado
Current Conditions -  °F | °C
As of 5:14 AM on Friday 28 Nov 2014 (Local Time) from K7BM Reporting Station
Clear Clear  
Wind Chill: 36°   Ceiling: Unl
Heat Index: 46°   Visibility: 10mi
Dew Point: -13°   Wind: 39mph
Humidity: 8%   Direction: 280°W
Pressure: 30.19"   Gusts: 60mph
Location:  38.8913°N, 106.224°W
Report Text: K7BM 281214Z AUTO 28034G52KT 250V350 10SM CLR 08/M25 A3019 RMK AO2
Loading
Personal Weather Stations






























Interactive Weather Map New forecast layout! Learn more

10-Day Weather Forecast

Advertisements
Track Severe Weather on mobile